Terminal Aerodrome Forecast
Issued by NWS Atlanta, GA

Home | Current Version | Previous Version | Text Only | Print | Product List | Glossary On
Versions: 1 2 3 4 5 6 7 8 9 10 11 12 13 14 15 16 17 18 19 20 21 22 23 24 25 26 27 28 29 30 31 32 33 34 35 36 37 38 39 40 41
000
FTUS42 KFFC 222155 AAB
TAFATL
TAF AMD
KATL 222155Z 2222/2324 17007KT P6SM FEW045 SCT060
     FM230900 13004KT 5SM BR SCT015 SCT050
     FM231100 12006KT 4SM BR SCT005 BKN050
     FM231500 15008KT P6SM BKN015=

USA.gov is the U.S. government's official web portal to all federal, state and local government web resources and services.